メインページ
METAR-TAF:

METAR-TAF

空港 :

タンソンニャット国際空港

ホーチミン, ベトナム

緯度: 10-49N, 経度: 106-40E, 海抜: 19m

現時点の気象観測

当レポートは39分前の02:30(UTC)に作成
変向風 1kt
気温 30°C
湿度 84%
気圧 1009 hPa
視程: 4000m
高度1500ftの雲はほとんどない
高度5000ftの千切れ雲あり

METAR: VVTS 210230Z VRB01KT 4000 BR FEW015 BKN050 30/27 Q1009 NOSIG

時間: 10:09 (03:09 UTC)

予報

当レポートは4時間9分前の23:00(UTC)に作成
予報は21日の 00時(UTC)から 22日の 06時(UTC)まで有効
東/南東の風 6kt
視程10km以上
高度1700ftの雲は散在している
21日の 07時(UTC)から 21日の 12時(UTC)まで一時的に
東/南東の風 16kt、最大28ktの突風を伴う
視程: 1500m
高度1300ftの千切れ雲あり
高度1500ftの雲は散在している, 積乱雲.
激しい雷雨, 大雨

TAF: VVTS 202300Z 2100/2206 12006KT 9999 SCT017 TEMPO 2107/2112 12016G28KT 1500 +TSRA BKN013 SCT015CB

4,000以上の空港の気象観測と天気予報(METAR報とTAF報)

利用可能な観測所は地図上に黄色い丸と赤い丸で示す。

丸の上にカーソルを重ねると観測所名を参照できる。

次にクリックすると気象観測と天気予報を参照できる。

マップの切り替え:黒色「×」印の緑ボタンをクリックして拡大、「-」印の緑ボタンをクリックして縮小、緑色の三角印をクリックして隣りの地図に切り替え


METAR-TAF: